sensor_id;sensor_type;location;lat;lon;timestamp;P1;durP1;ratioP1;P2;durP2;ratioP2
20298;SDS011;10308;42.688;23.256;2024-01-30T00:01:06;9.57;;;8.57;;
20298;SDS011;10308;42.688;23.256;2024-01-30T00:03:33;8.75;;;7.93;;
20298;SDS011;10308;42.688;23.256;2024-01-30T00:06:00;9.23;;;8.35;;
20298;SDS011;10308;42.688;23.256;2024-01-30T00:08:29;8.80;;;8.00;;
20298;SDS011;10308;42.688;23.256;2024-01-30T00:10:56;7.32;;;6.63;;
20298;SDS011;10308;42.688;23.256;2024-01-30T00:13:23;6.43;;;5.82;;
20298;SDS011;10308;42.688;23.256;2024-01-30T00:15:50;7.43;;;6.70;;
20298;SDS011;10308;42.688;23.256;2024-01-30T00:18:17;7.18;;;6.57;;
20298;SDS011;10308;42.688;23.256;2024-01-30T00:20:45;7.35;;;6.65;;
20298;SDS011;10308;42.688;23.256;2024-01-30T00:23:12;7.50;;;6.78;;
20298;SDS011;10308;42.688;23.256;2024-01-30T00:25:41;8.38;;;7.68;;
20298;SDS011;10308;42.688;23.256;2024-01-30T00:28:08;8.65;;;7.80;;
20298;SDS011;10308;42.688;23.256;2024-01-30T00:30:35;7.50;;;6.80;;
20298;SDS011;10308;42.688;23.256;2024-01-30T00:33:01;7.82;;;7.13;;
20298;SDS011;10308;42.688;23.256;2024-01-30T00:35:29;7.70;;;7.07;;
20298;SDS011;10308;42.688;23.256;2024-01-30T00:37:56;6.72;;;6.22;;
20298;SDS011;10308;42.688;23.256;2024-01-30T00:40:23;8.10;;;7.35;;
20298;SDS011;10308;42.688;23.256;2024-01-30T00:42:52;7.47;;;6.88;;
20298;SDS011;10308;42.688;23.256;2024-01-30T00:45:19;7.20;;;6.60;;
20298;SDS011;10308;42.688;23.256;2024-01-30T00:47:45;7.40;;;6.80;;
20298;SDS011;10308;42.688;23.256;2024-01-30T00:50:13;6.85;;;6.35;;
20298;SDS011;10308;42.688;23.256;2024-01-30T00:52:40;6.60;;;6.10;;
20298;SDS011;10308;42.688;23.256;2024-01-30T00:55:10;6.20;;;5.70;;
20298;SDS011;10308;42.688;23.256;2024-01-30T00:57:37;6.82;;;6.22;;
20298;SDS011;10308;42.688;23.256;2024-01-30T01:00:07;6.20;;;5.80;;
20298;SDS011;10308;42.688;23.256;2024-01-30T01:02:34;5.75;;;5.35;;
20298;SDS011;10308;42.688;23.256;2024-01-30T01:05:02;6.25;;;5.75;;
20298;SDS011;10308;42.688;23.256;2024-01-30T01:07:30;6.55;;;6.05;;
20298;SDS011;10308;42.688;23.256;2024-01-30T01:09:56;6.72;;;6.22;;
20298;SDS011;10308;42.688;23.256;2024-01-30T01:12:23;7.05;;;6.45;;
20298;SDS011;10308;42.688;23.256;2024-01-30T01:14:50;6.88;;;6.35;;
20298;SDS011;10308;42.688;23.256;2024-01-30T01:17:19;8.50;;;7.80;;
20298;SDS011;10308;42.688;23.256;2024-01-30T01:19:46;8.43;;;7.68;;
20298;SDS011;10308;42.688;23.256;2024-01-30T01:22:13;8.77;;;8.05;;
20298;SDS011;10308;42.688;23.256;2024-01-30T01:24:40;9.00;;;8.20;;
20298;SDS011;10308;42.688;23.256;2024-01-30T01:27:07;9.30;;;8.40;;
20298;SDS011;10308;42.688;23.256;2024-01-30T01:29:35;9.32;;;8.52;;
20298;SDS011;10308;42.688;23.256;2024-01-30T01:32:02;9.52;;;8.73;;
20298;SDS011;10308;42.688;23.256;2024-01-30T01:34:31;8.50;;;7.80;;
20298;SDS011;10308;42.688;23.256;2024-01-30T01:36:58;8.73;;;8.02;;
20298;SDS011;10308;42.688;23.256;2024-01-30T01:39:25;7.25;;;6.65;;
20298;SDS011;10308;42.688;23.256;2024-01-30T01:41:52;8.02;;;7.22;;
20298;SDS011;10308;42.688;23.256;2024-01-30T01:44:19;8.63;;;7.82;;
20298;SDS011;10308;42.688;23.256;2024-01-30T01:46:47;8.48;;;7.72;;
20298;SDS011;10308;42.688;23.256;2024-01-30T01:49:14;7.95;;;7.22;;
20298;SDS011;10308;42.688;23.256;2024-01-30T01:51:43;6.47;;;5.97;;
20298;SDS011;10308;42.688;23.256;2024-01-30T01:54:11;7.05;;;6.45;;
20298;SDS011;10308;42.688;23.256;2024-01-30T01:56:38;6.97;;;6.47;;
20298;SDS011;10308;42.688;23.256;2024-01-30T01:59:06;6.90;;;6.40;;
20298;SDS011;10308;42.688;23.256;2024-01-30T02:01:33;6.78;;;6.28;;
20298;SDS011;10308;42.688;23.256;2024-01-30T02:04:00;6.85;;;6.15;;
20298;SDS011;10308;42.688;23.256;2024-01-30T02:06:28;7.60;;;5.90;;
20298;SDS011;10308;42.688;23.256;2024-01-30T02:08:56;5.85;;;5.28;;
20298;SDS011;10308;42.688;23.256;2024-01-30T02:11:23;5.28;;;4.88;;
20298;SDS011;10308;42.688;23.256;2024-01-30T02:13:50;5.25;;;4.82;;
20298;SDS011;10308;42.688;23.256;2024-01-30T02:16:18;5.30;;;4.90;;
20298;SDS011;10308;42.688;23.256;2024-01-30T02:18:45;4.50;;;4.20;;
20298;SDS011;10308;42.688;23.256;2024-01-30T02:21:15;4.75;;;4.43;;
20298;SDS011;10308;42.688;23.256;2024-01-30T02:23:43;5.22;;;4.82;;
20298;SDS011;10308;42.688;23.256;2024-01-30T02:26:10;4.90;;;4.60;;
20298;SDS011;10308;42.688;23.256;2024-01-30T02:28:37;4.78;;;4.40;;
20298;SDS011;10308;42.688;23.256;2024-01-30T02:31:05;5.00;;;4.60;;
20298;SDS011;10308;42.688;23.256;2024-01-30T02:33:33;4.63;;;4.30;;
20298;SDS011;10308;42.688;23.256;2024-01-30T02:36:00;4.40;;;4.10;;
20298;SDS011;10308;42.688;23.256;2024-01-30T02:38:28;5.00;;;4.60;;
20298;SDS011;10308;42.688;23.256;2024-01-30T02:40:55;5.18;;;4.78;;
20298;SDS011;10308;42.688;23.256;2024-01-30T02:43:22;4.57;;;4.28;;
20298;SDS011;10308;42.688;23.256;2024-01-30T02:45:49;4.72;;;4.40;;
20298;SDS011;10308;42.688;23.256;2024-01-30T02:48:16;4.82;;;4.53;;
20298;SDS011;10308;42.688;23.256;2024-01-30T02:50:43;4.85;;;4.45;;
20298;SDS011;10308;42.688;23.256;2024-01-30T02:53:11;4.82;;;4.43;;
20298;SDS011;10308;42.688;23.256;2024-01-30T02:55:39;5.15;;;4.78;;
20298;SDS011;10308;42.688;23.256;2024-01-30T02:58:07;5.72;;;5.32;;
20298;SDS011;10308;42.688;23.256;2024-01-30T03:00:34;4.90;;;4.50;;
20298;SDS011;10308;42.688;23.256;2024-01-30T03:03:01;4.55;;;4.25;;
20298;SDS011;10308;42.688;23.256;2024-01-30T03:05:28;4.50;;;4.20;;
20298;SDS011;10308;42.688;23.256;2024-01-30T03:07:55;4.15;;;3.85;;
20298;SDS011;10308;42.688;23.256;2024-01-30T03:10:22;4.80;;;4.30;;
20298;SDS011;10308;42.688;23.256;2024-01-30T03:12:51;4.88;;;4.47;;
20298;SDS011;10308;42.688;23.256;2024-01-30T03:15:18;5.13;;;4.72;;
20298;SDS011;10308;42.688;23.256;2024-01-30T03:17:45;4.70;;;4.40;;
20298;SDS011;10308;42.688;23.256;2024-01-30T03:20:12;5.50;;;5.10;;
20298;SDS011;10308;42.688;23.256;2024-01-30T03:22:39;5.05;;;4.65;;
20298;SDS011;10308;42.688;23.256;2024-01-30T03:25:07;5.20;;;4.80;;
20298;SDS011;10308;42.688;23.256;2024-01-30T03:27:34;6.15;;;5.57;;
20298;SDS011;10308;42.688;23.256;2024-01-30T03:30:03;6.82;;;6.22;;
20298;SDS011;10308;42.688;23.256;2024-01-30T03:32:30;5.28;;;4.88;;
20298;SDS011;10308;42.688;23.256;2024-01-30T03:34:58;5.35;;;4.95;;
20298;SDS011;10308;42.688;23.256;2024-01-30T03:37:25;4.60;;;4.30;;
20298;SDS011;10308;42.688;23.256;2024-01-30T03:39:52;4.63;;;4.22;;
20298;SDS011;10308;42.688;23.256;2024-01-30T03:42:18;4.63;;;4.32;;
20298;SDS011;10308;42.688;23.256;2024-01-30T03:44:46;3.97;;;3.67;;
20298;SDS011;10308;42.688;23.256;2024-01-30T03:47:14;5.25;;;4.68;;
20298;SDS011;10308;42.688;23.256;2024-01-30T03:49:41;4.95;;;4.45;;
20298;SDS011;10308;42.688;23.256;2024-01-30T03:52:08;4.72;;;4.32;;
20298;SDS011;10308;42.688;23.256;2024-01-30T03:54:35;4.80;;;4.40;;
20298;SDS011;10308;42.688;23.256;2024-01-30T03:57:03;4.68;;;4.30;;
20298;SDS011;10308;42.688;23.256;2024-01-30T03:59:30;5.00;;;4.50;;
20298;SDS011;10308;42.688;23.256;2024-01-30T04:01:57;5.15;;;4.70;;
20298;SDS011;10308;42.688;23.256;2024-01-30T04:04:26;5.55;;;5.05;;
20298;SDS011;10308;42.688;23.256;2024-01-30T04:06:53;4.80;;;4.32;;
20298;SDS011;10308;42.688;23.256;2024-01-30T04:09:20;5.25;;;4.85;;
20298;SDS011;10308;42.688;23.256;2024-01-30T04:11:47;4.68;;;4.38;;
20298;SDS011;10308;42.688;23.256;2024-01-30T04:14:14;5.93;;;5.40;;
20298;SDS011;10308;42.688;23.256;2024-01-30T04:16:41;4.95;;;4.55;;
20298;SDS011;10308;42.688;23.256;2024-01-30T04:19:08;4.80;;;4.40;;
20298;SDS011;10308;42.688;23.256;2024-01-30T04:21:36;5.15;;;4.75;;
20298;SDS011;10308;42.688;23.256;2024-01-30T04:24:04;4.28;;;3.97;;
20298;SDS011;10308;42.688;23.256;2024-01-30T04:26:31;4.65;;;4.35;;
20298;SDS011;10308;42.688;23.256;2024-01-30T04:28:59;5.03;;;4.53;;
20298;SDS011;10308;42.688;23.256;2024-01-30T04:31:25;5.82;;;5.32;;
20298;SDS011;10308;42.688;23.256;2024-01-30T04:33:52;5.30;;;4.90;;
20298;SDS011;10308;42.688;23.256;2024-01-30T04:36:19;4.90;;;4.50;;
20298;SDS011;10308;42.688;23.256;2024-01-30T04:38:48;4.93;;;4.43;;
20298;SDS011;10308;42.688;23.256;2024-01-30T04:41:15;5.05;;;4.55;;
20298;SDS011;10308;42.688;23.256;2024-01-30T04:43:42;4.75;;;4.43;;
20298;SDS011;10308;42.688;23.256;2024-01-30T04:46:09;4.22;;;3.83;;
20298;SDS011;10308;42.688;23.256;2024-01-30T04:48:36;4.80;;;4.30;;
20298;SDS011;10308;42.688;23.256;2024-01-30T04:51:03;3.70;;;3.42;;
20298;SDS011;10308;42.688;23.256;2024-01-30T04:53:30;5.55;;;5.05;;
20298;SDS011;10308;42.688;23.256;2024-01-30T04:55:59;4.70;;;4.22;;
20298;SDS011;10308;42.688;23.256;2024-01-30T04:58:26;5.43;;;4.45;;
20298;SDS011;10308;42.688;23.256;2024-01-30T05:00:53;4.82;;;4.43;;
20298;SDS011;10308;42.688;23.256;2024-01-30T05:03:20;5.70;;;5.10;;
20298;SDS011;10308;42.688;23.256;2024-01-30T05:05:49;5.50;;;5.00;;
20298;SDS011;10308;42.688;23.256;2024-01-30T05:08:16;5.35;;;4.95;;
20298;SDS011;10308;42.688;23.256;2024-01-30T05:10:43;5.45;;;5.05;;
20298;SDS011;10308;42.688;23.256;2024-01-30T05:13:12;5.18;;;4.78;;
20298;SDS011;10308;42.688;23.256;2024-01-30T05:15:39;5.93;;;5.25;;
20298;SDS011;10308;42.688;23.256;2024-01-30T05:18:06;6.05;;;5.55;;
20298;SDS011;10308;42.688;23.256;2024-01-30T05:20:35;5.78;;;5.30;;
20298;SDS011;10308;42.688;23.256;2024-01-30T05:23:02;7.28;;;6.68;;
20298;SDS011;10308;42.688;23.256;2024-01-30T05:25:31;6.35;;;5.85;;
20298;SDS011;10308;42.688;23.256;2024-01-30T05:27:58;6.18;;;5.68;;
20298;SDS011;10308;42.688;23.256;2024-01-30T05:30:26;7.05;;;6.50;;
20298;SDS011;10308;42.688;23.256;2024-01-30T05:32:53;7.00;;;6.40;;
20298;SDS011;10308;42.688;23.256;2024-01-30T05:35:21;7.75;;;7.05;;
20298;SDS011;10308;42.688;23.256;2024-01-30T05:37:48;8.63;;;7.90;;
20298;SDS011;10308;42.688;23.256;2024-01-30T05:40:15;9.02;;;8.13;;
20298;SDS011;10308;42.688;23.256;2024-01-30T05:42:43;9.25;;;8.30;;
20298;SDS011;10308;42.688;23.256;2024-01-30T05:45:10;10.02;;;9.10;;
20298;SDS011;10308;42.688;23.256;2024-01-30T05:47:38;12.10;;;10.20;;
20298;SDS011;10308;42.688;23.256;2024-01-30T05:50:06;10.98;;;9.98;;
20298;SDS011;10308;42.688;23.256;2024-01-30T05:52:33;10.20;;;9.30;;
20298;SDS011;10308;42.688;23.256;2024-01-30T05:55:00;10.38;;;8.95;;
20298;SDS011;10308;42.688;23.256;2024-01-30T05:57:28;12.65;;;10.15;;
20298;SDS011;10308;42.688;23.256;2024-01-30T05:59:55;13.32;;;11.95;;
20298;SDS011;10308;42.688;23.256;2024-01-30T06:02:22;14.35;;;12.57;;
20298;SDS011;10308;42.688;23.256;2024-01-30T06:04:50;9.80;;;8.95;;
20298;SDS011;10308;42.688;23.256;2024-01-30T06:07:17;8.85;;;7.53;;
20298;SDS011;10308;42.688;23.256;2024-01-30T06:09:45;8.32;;;7.53;;
20298;SDS011;10308;42.688;23.256;2024-01-30T06:12:12;8.32;;;7.53;;
20298;SDS011;10308;42.688;23.256;2024-01-30T06:14:40;9.65;;;8.57;;
20298;SDS011;10308;42.688;23.256;2024-01-30T06:17:07;9.75;;;8.80;;
20298;SDS011;10308;42.688;23.256;2024-01-30T06:19:34;6.75;;;6.07;;
20298;SDS011;10308;42.688;23.256;2024-01-30T06:22:03;8.13;;;7.10;;
20298;SDS011;10308;42.688;23.256;2024-01-30T06:24:31;5.65;;;5.15;;
20298;SDS011;10308;42.688;23.256;2024-01-30T06:26:58;6.07;;;5.35;;
20298;SDS011;10308;42.688;23.256;2024-01-30T06:29:25;7.15;;;5.30;;
20298;SDS011;10308;42.688;23.256;2024-01-30T06:31:53;5.75;;;5.03;;
20298;SDS011;10308;42.688;23.256;2024-01-30T06:34:20;4.95;;;4.55;;
20298;SDS011;10308;42.688;23.256;2024-01-30T06:36:47;5.30;;;4.13;;
20298;SDS011;10308;42.688;23.256;2024-01-30T06:39:16;4.53;;;4.13;;
20298;SDS011;10308;42.688;23.256;2024-01-30T06:41:44;4.82;;;4.43;;
20298;SDS011;10308;42.688;23.256;2024-01-30T06:44:12;12.90;;;9.68;;
20298;SDS011;10308;42.688;23.256;2024-01-30T06:46:39;10.98;;;9.75;;
20298;SDS011;10308;42.688;23.256;2024-01-30T06:49:06;21.65;;;14.32;;
20298;SDS011;10308;42.688;23.256;2024-01-30T06:51:33;5.72;;;5.10;;
20298;SDS011;10308;42.688;23.256;2024-01-30T06:54:00;8.50;;;6.60;;
20298;SDS011;10308;42.688;23.256;2024-01-30T06:56:29;5.00;;;4.50;;
20298;SDS011;10308;42.688;23.256;2024-01-30T06:58:56;5.47;;;4.25;;
20298;SDS011;10308;42.688;23.256;2024-01-30T07:01:30;6.85;;;4.57;;
20298;SDS011;10308;42.688;23.256;2024-01-30T07:03:57;6.25;;;4.75;;
20298;SDS011;10308;42.688;23.256;2024-01-30T07:06:24;5.18;;;4.68;;
20298;SDS011;10308;42.688;23.256;2024-01-30T07:08:51;6.82;;;4.65;;
20298;SDS011;10308;42.688;23.256;2024-01-30T07:11:18;5.45;;;4.95;;
20298;SDS011;10308;42.688;23.256;2024-01-30T07:13:48;4.97;;;4.47;;
20298;SDS011;10308;42.688;23.256;2024-01-30T07:16:15;7.00;;;4.82;;
20298;SDS011;10308;42.688;23.256;2024-01-30T07:18:43;5.47;;;4.97;;
20298;SDS011;10308;42.688;23.256;2024-01-30T07:21:10;4.40;;;4.00;;
20298;SDS011;10308;42.688;23.256;2024-01-30T07:23:37;5.10;;;4.60;;
20298;SDS011;10308;42.688;23.256;2024-01-30T07:26:04;5.05;;;4.65;;
20298;SDS011;10308;42.688;23.256;2024-01-30T07:28:32;4.97;;;4.53;;
20298;SDS011;10308;42.688;23.256;2024-01-30T07:31:00;4.78;;;4.28;;
20298;SDS011;10308;42.688;23.256;2024-01-30T07:33:28;5.03;;;4.10;;
20298;SDS011;10308;42.688;23.256;2024-01-30T07:35:55;3.80;;;3.42;;
20298;SDS011;10308;42.688;23.256;2024-01-30T07:38:22;3.80;;;3.50;;
20298;SDS011;10308;42.688;23.256;2024-01-30T07:40:50;4.57;;;4.03;;
20298;SDS011;10308;42.688;23.256;2024-01-30T07:43:17;4.20;;;3.80;;
20298;SDS011;10308;42.688;23.256;2024-01-30T07:45:45;4.20;;;3.80;;
20298;SDS011;10308;42.688;23.256;2024-01-30T07:48:13;4.10;;;3.70;;
20298;SDS011;10308;42.688;23.256;2024-01-30T07:50:40;4.05;;;3.75;;
20298;SDS011;10308;42.688;23.256;2024-01-30T07:53:07;4.55;;;4.15;;
20298;SDS011;10308;42.688;23.256;2024-01-30T07:55:35;6.05;;;5.18;;
20298;SDS011;10308;42.688;23.256;2024-01-30T07:58:02;4.75;;;4.35;;
20298;SDS011;10308;42.688;23.256;2024-01-30T08:00:29;5.00;;;4.50;;
20298;SDS011;10308;42.688;23.256;2024-01-30T08:02:57;4.43;;;4.13;;
20298;SDS011;10308;42.688;23.256;2024-01-30T08:05:25;4.93;;;4.57;;
20298;SDS011;10308;42.688;23.256;2024-01-30T08:07:53;5.07;;;4.68;;
20298;SDS011;10308;42.688;23.256;2024-01-30T08:10:20;4.95;;;4.43;;
20298;SDS011;10308;42.688;23.256;2024-01-30T08:12:47;4.90;;;4.50;;
20298;SDS011;10308;42.688;23.256;2024-01-30T08:15:13;5.30;;;4.80;;
20298;SDS011;10308;42.688;23.256;2024-01-30T08:17:40;5.65;;;5.05;;
20298;SDS011;10308;42.688;23.256;2024-01-30T08:20:08;5.30;;;4.82;;
20298;SDS011;10308;42.688;23.256;2024-01-30T08:22:39;4.65;;;4.15;;
20298;SDS011;10308;42.688;23.256;2024-01-30T08:25:06;5.97;;;5.47;;
20298;SDS011;10308;42.688;23.256;2024-01-30T08:27:35;5.40;;;4.68;;
20298;SDS011;10308;42.688;23.256;2024-01-30T08:30:04;6.40;;;5.80;;
20298;SDS011;10308;42.688;23.256;2024-01-30T08:32:32;6.28;;;5.70;;
20298;SDS011;10308;42.688;23.256;2024-01-30T08:34:59;8.02;;;7.22;;
20298;SDS011;10308;42.688;23.256;2024-01-30T08:37:28;7.47;;;5.82;;
20298;SDS011;10308;42.688;23.256;2024-01-30T08:39:57;7.50;;;5.88;;
20298;SDS011;10308;42.688;23.256;2024-01-30T08:42:24;5.18;;;4.68;;
20298;SDS011;10308;42.688;23.256;2024-01-30T08:44:51;6.10;;;5.53;;
20298;SDS011;10308;42.688;23.256;2024-01-30T08:47:19;8.95;;;8.18;;
20298;SDS011;10308;42.688;23.256;2024-01-30T08:49:46;5.63;;;4.85;;
20298;SDS011;10308;42.688;23.256;2024-01-30T08:52:13;5.30;;;4.80;;
20298;SDS011;10308;42.688;23.256;2024-01-30T08:54:40;7.80;;;6.03;;
20298;SDS011;10308;42.688;23.256;2024-01-30T08:57:09;8.77;;;7.85;;
20298;SDS011;10308;42.688;23.256;2024-01-30T08:59:36;6.60;;;6.03;;
20298;SDS011;10308;42.688;23.256;2024-01-30T09:02:03;6.13;;;5.57;;
20298;SDS011;10308;42.688;23.256;2024-01-30T09:04:30;7.85;;;7.05;;
20298;SDS011;10308;42.688;23.256;2024-01-30T09:06:57;9.52;;;6.45;;
20298;SDS011;10308;42.688;23.256;2024-01-30T09:09:24;7.25;;;6.35;;
20298;SDS011;10308;42.688;23.256;2024-01-30T09:11:51;5.82;;;5.22;;
20298;SDS011;10308;42.688;23.256;2024-01-30T09:14:21;5.57;;;5.07;;
20298;SDS011;10308;42.688;23.256;2024-01-30T09:16:48;6.90;;;6.30;;
20298;SDS011;10308;42.688;23.256;2024-01-30T09:19:15;7.30;;;6.22;;
20298;SDS011;10308;42.688;23.256;2024-01-30T09:21:42;10.07;;;8.20;;
20298;SDS011;10308;42.688;23.256;2024-01-30T09:24:09;8.85;;;7.80;;
20298;SDS011;10308;42.688;23.256;2024-01-30T09:26:37;7.10;;;6.45;;
20298;SDS011;10308;42.688;23.256;2024-01-30T09:29:04;8.45;;;7.05;;
20298;SDS011;10308;42.688;23.256;2024-01-30T09:31:32;7.93;;;7.13;;
20298;SDS011;10308;42.688;23.256;2024-01-30T09:33:59;8.18;;;6.05;;
20298;SDS011;10308;42.688;23.256;2024-01-30T09:36:26;5.63;;;5.13;;
20298;SDS011;10308;42.688;23.256;2024-01-30T09:38:53;5.78;;;5.38;;
20298;SDS011;10308;42.688;23.256;2024-01-30T09:41:21;6.47;;;5.97;;
20298;SDS011;10308;42.688;23.256;2024-01-30T09:43:50;7.05;;;6.40;;
20298;SDS011;10308;42.688;23.256;2024-01-30T09:46:18;5.32;;;4.93;;
20298;SDS011;10308;42.688;23.256;2024-01-30T09:48:48;6.63;;;6.03;;
20298;SDS011;10308;42.688;23.256;2024-01-30T09:51:15;6.07;;;5.57;;
20298;SDS011;10308;42.688;23.256;2024-01-30T09:53:43;4.57;;;4.18;;
20298;SDS011;10308;42.688;23.256;2024-01-30T09:56:12;5.15;;;4.75;;
20298;SDS011;10308;42.688;23.256;2024-01-30T09:58:39;7.78;;;6.93;;
20298;SDS011;10308;42.688;23.256;2024-01-30T10:01:07;3.85;;;3.55;;
20298;SDS011;10308;42.688;23.256;2024-01-30T10:03:34;4.78;;;4.38;;
20298;SDS011;10308;42.688;23.256;2024-01-30T10:06:02;7.07;;;6.45;;
20298;SDS011;10308;42.688;23.256;2024-01-30T10:08:30;6.97;;;6.35;;
20298;SDS011;10308;42.688;23.256;2024-01-30T10:10:58;8.05;;;7.45;;
20298;SDS011;10308;42.688;23.256;2024-01-30T10:13:25;5.90;;;5.40;;
20298;SDS011;10308;42.688;23.256;2024-01-30T10:15:52;5.00;;;4.60;;
20298;SDS011;10308;42.688;23.256;2024-01-30T10:18:20;5.10;;;4.70;;
20298;SDS011;10308;42.688;23.256;2024-01-30T10:20:48;7.70;;;7.00;;
20298;SDS011;10308;42.688;23.256;2024-01-30T10:23:16;5.75;;;5.25;;
20298;SDS011;10308;42.688;23.256;2024-01-30T10:25:44;4.90;;;4.50;;
20298;SDS011;10308;42.688;23.256;2024-01-30T10:28:11;4.45;;;4.13;;
20298;SDS011;10308;42.688;23.256;2024-01-30T10:30:38;3.90;;;3.60;;
20298;SDS011;10308;42.688;23.256;2024-01-30T10:33:05;5.15;;;4.65;;
20298;SDS011;10308;42.688;23.256;2024-01-30T10:35:32;5.07;;;4.65;;
20298;SDS011;10308;42.688;23.256;2024-01-30T10:38:02;6.15;;;5.55;;
20298;SDS011;10308;42.688;23.256;2024-01-30T10:40:31;4.28;;;3.97;;
20298;SDS011;10308;42.688;23.256;2024-01-30T10:43:00;3.80;;;3.50;;
20298;SDS011;10308;42.688;23.256;2024-01-30T10:45:28;3.70;;;3.40;;
20298;SDS011;10308;42.688;23.256;2024-01-30T10:47:57;5.43;;;4.93;;
20298;SDS011;10308;42.688;23.256;2024-01-30T10:50:25;4.25;;;3.85;;
20298;SDS011;10308;42.688;23.256;2024-01-30T10:52:53;3.95;;;3.65;;
20298;SDS011;10308;42.688;23.256;2024-01-30T10:55:21;6.05;;;5.55;;
20298;SDS011;10308;42.688;23.256;2024-01-30T10:57:50;4.60;;;4.28;;
20298;SDS011;10308;42.688;23.256;2024-01-30T11:00:18;4.18;;;3.88;;
20298;SDS011;10308;42.688;23.256;2024-01-30T11:02:48;4.95;;;4.20;;
20298;SDS011;10308;42.688;23.256;2024-01-30T11:05:22;5.30;;;4.80;;
20298;SDS011;10308;42.688;23.256;2024-01-30T11:07:50;3.90;;;3.60;;
20298;SDS011;10308;42.688;23.256;2024-01-30T11:10:17;3.70;;;3.40;;
20298;SDS011;10308;42.688;23.256;2024-01-30T11:12:45;4.10;;;3.80;;
20298;SDS011;10308;42.688;23.256;2024-01-30T11:15:15;3.85;;;3.42;;
20298;SDS011;10308;42.688;23.256;2024-01-30T11:17:43;5.13;;;4.72;;
20298;SDS011;10308;42.688;23.256;2024-01-30T11:20:11;6.43;;;5.10;;
20298;SDS011;10308;42.688;23.256;2024-01-30T11:22:41;5.40;;;4.93;;
20298;SDS011;10308;42.688;23.256;2024-01-30T11:25:12;5.25;;;4.75;;
20298;SDS011;10308;42.688;23.256;2024-01-30T11:27:40;4.00;;;3.70;;
20298;SDS011;10308;42.688;23.256;2024-01-30T11:30:08;3.10;;;2.90;;
20298;SDS011;10308;42.688;23.256;2024-01-30T11:32:37;4.70;;;3.67;;
20298;SDS011;10308;42.688;23.256;2024-01-30T11:35:04;3.45;;;3.25;;
20298;SDS011;10308;42.688;23.256;2024-01-30T11:37:36;3.72;;;3.42;;
20298;SDS011;10308;42.688;23.256;2024-01-30T11:40:05;3.88;;;3.58;;
20298;SDS011;10308;42.688;23.256;2024-01-30T11:42:33;3.58;;;3.28;;
20298;SDS011;10308;42.688;23.256;2024-01-30T11:45:01;3.50;;;3.20;;
20298;SDS011;10308;42.688;23.256;2024-01-30T11:47:29;3.70;;;3.40;;
20298;SDS011;10308;42.688;23.256;2024-01-30T11:49:57;3.58;;;3.28;;
20298;SDS011;10308;42.688;23.256;2024-01-30T11:52:24;3.58;;;3.28;;
20298;SDS011;10308;42.688;23.256;2024-01-30T11:54:51;3.58;;;3.28;;
20298;SDS011;10308;42.688;23.256;2024-01-30T11:57:18;4.00;;;3.70;;
20298;SDS011;10308;42.688;23.256;2024-01-30T11:59:45;5.22;;;4.72;;
20298;SDS011;10308;42.688;23.256;2024-01-30T12:02:15;3.80;;;3.50;;
20298;SDS011;10308;42.688;23.256;2024-01-30T12:04:42;3.95;;;3.65;;
20298;SDS011;10308;42.688;23.256;2024-01-30T12:07:11;3.75;;;3.45;;
20298;SDS011;10308;42.688;23.256;2024-01-30T12:09:42;4.63;;;4.22;;
20298;SDS011;10308;42.688;23.256;2024-01-30T12:12:09;5.03;;;4.55;;
20298;SDS011;10308;42.688;23.256;2024-01-30T12:14:37;3.70;;;3.40;;
20298;SDS011;10308;42.688;23.256;2024-01-30T12:17:05;7.07;;;4.05;;
20298;SDS011;10308;42.688;23.256;2024-01-30T12:19:32;4.20;;;3.80;;
20298;SDS011;10308;42.688;23.256;2024-01-30T12:22:00;7.65;;;3.65;;
20298;SDS011;10308;42.688;23.256;2024-01-30T12:24:29;3.63;;;3.33;;
20298;SDS011;10308;42.688;23.256;2024-01-30T12:26:57;4.22;;;3.33;;
20298;SDS011;10308;42.688;23.256;2024-01-30T12:29:25;4.20;;;3.88;;
20298;SDS011;10308;42.688;23.256;2024-01-30T12:31:53;3.65;;;3.35;;
20298;SDS011;10308;42.688;23.256;2024-01-30T12:34:20;3.85;;;3.55;;
20298;SDS011;10308;42.688;23.256;2024-01-30T12:36:47;4.18;;;3.80;;
20298;SDS011;10308;42.688;23.256;2024-01-30T12:39:15;4.30;;;3.90;;
20298;SDS011;10308;42.688;23.256;2024-01-30T12:41:43;5.43;;;4.68;;
20298;SDS011;10308;42.688;23.256;2024-01-30T12:44:10;6.45;;;5.78;;
20298;SDS011;10308;42.688;23.256;2024-01-30T12:46:38;11.27;;;7.28;;
20298;SDS011;10308;42.688;23.256;2024-01-30T12:49:05;6.55;;;6.00;;
20298;SDS011;10308;42.688;23.256;2024-01-30T12:51:33;6.00;;;5.43;;
20298;SDS011;10308;42.688;23.256;2024-01-30T12:54:04;4.85;;;4.40;;
20298;SDS011;10308;42.688;23.256;2024-01-30T12:56:31;4.20;;;3.90;;
20298;SDS011;10308;42.688;23.256;2024-01-30T12:59:00;4.70;;;4.30;;
20298;SDS011;10308;42.688;23.256;2024-01-30T13:01:27;5.35;;;4.85;;
20298;SDS011;10308;42.688;23.256;2024-01-30T13:03:54;6.65;;;6.05;;
20298;SDS011;10308;42.688;23.256;2024-01-30T13:06:23;6.43;;;5.82;;
20298;SDS011;10308;42.688;23.256;2024-01-30T13:08:50;8.18;;;6.18;;
20298;SDS011;10308;42.688;23.256;2024-01-30T13:11:17;4.80;;;4.40;;
20298;SDS011;10308;42.688;23.256;2024-01-30T13:13:44;5.53;;;5.03;;
20298;SDS011;10308;42.688;23.256;2024-01-30T13:16:13;5.70;;;5.10;;
20298;SDS011;10308;42.688;23.256;2024-01-30T13:18:40;5.47;;;4.78;;
20298;SDS011;10308;42.688;23.256;2024-01-30T13:21:07;4.85;;;4.45;;
20298;SDS011;10308;42.688;23.256;2024-01-30T13:23:34;5.00;;;4.50;;
20298;SDS011;10308;42.688;23.256;2024-01-30T13:26:02;5.53;;;5.05;;
20298;SDS011;10308;42.688;23.256;2024-01-30T13:28:30;6.65;;;6.05;;
20298;SDS011;10308;42.688;23.256;2024-01-30T13:30:57;5.97;;;5.47;;
20298;SDS011;10308;42.688;23.256;2024-01-30T13:33:26;6.22;;;5.68;;
20298;SDS011;10308;42.688;23.256;2024-01-30T13:35:53;5.60;;;5.10;;
20298;SDS011;10308;42.688;23.256;2024-01-30T13:38:20;6.20;;;5.60;;
20298;SDS011;10308;42.688;23.256;2024-01-30T13:40:47;5.65;;;5.25;;
20298;SDS011;10308;42.688;23.256;2024-01-30T13:43:14;5.15;;;4.75;;
20298;SDS011;10308;42.688;23.256;2024-01-30T13:45:43;5.60;;;5.10;;
20298;SDS011;10308;42.688;23.256;2024-01-30T13:48:11;4.78;;;4.45;;
20298;SDS011;10308;42.688;23.256;2024-01-30T13:50:40;5.20;;;4.75;;
20298;SDS011;10308;42.688;23.256;2024-01-30T13:53:07;5.63;;;5.07;;
20298;SDS011;10308;42.688;23.256;2024-01-30T13:55:35;5.07;;;4.68;;
20298;SDS011;10308;42.688;23.256;2024-01-30T13:58:02;5.55;;;5.05;;
20298;SDS011;10308;42.688;23.256;2024-01-30T14:00:29;5.80;;;5.30;;
20298;SDS011;10308;42.688;23.256;2024-01-30T14:02:56;6.18;;;5.50;;
20298;SDS011;10308;42.688;23.256;2024-01-30T14:05:24;6.07;;;5.32;;
20298;SDS011;10308;42.688;23.256;2024-01-30T14:07:53;6.50;;;5.95;;
20298;SDS011;10308;42.688;23.256;2024-01-30T14:10:20;7.28;;;6.68;;
20298;SDS011;10308;42.688;23.256;2024-01-30T14:12:47;5.30;;;4.90;;
20298;SDS011;10308;42.688;23.256;2024-01-30T14:15:14;4.90;;;4.57;;
20298;SDS011;10308;42.688;23.256;2024-01-30T14:17:43;5.78;;;5.18;;
20298;SDS011;10308;42.688;23.256;2024-01-30T14:20:13;6.20;;;5.70;;
20298;SDS011;10308;42.688;23.256;2024-01-30T14:22:42;7.00;;;6.40;;
20298;SDS011;10308;42.688;23.256;2024-01-30T14:25:11;8.20;;;7.40;;
20298;SDS011;10308;42.688;23.256;2024-01-30T14:27:39;8.07;;;5.40;;
20298;SDS011;10308;42.688;23.256;2024-01-30T14:30:06;5.25;;;4.85;;
20298;SDS011;10308;42.688;23.256;2024-01-30T14:32:36;5.90;;;5.40;;
20298;SDS011;10308;42.688;23.256;2024-01-30T14:35:04;6.65;;;6.00;;